Perulack, Pennsylvania
Current Conditions -  °F | °C
As of 12:53 AM on Saturday 20 Dec 2014 (Local Time) from KAOO Reporting Station
Overcast Overcast  
Wind Chill: 15°   Ceiling: 2100
Heat Index: 26°   Visibility: 10mi
Dew Point: 18°   Wind: 13mph
Humidity: 71%   Direction: 350°N
Pressure: 30.2"   Gusts: 16mph
Location:  40.3617°N, 77.6745°W
Report Text: KAOO 200553Z AUTO 35011G14KT 10SM OVC021 M03/M08 A3020 RMK AO2 SLP244 T10331078 11022 21033 58007
Loading
Personal Weather Stations






























Interactive Weather Map New forecast layout! Learn more

10-Day Weather Forecast

Advertisements
Track Severe Weather on mobile